CheckWX is a tool to help pilots better visualize weather data.  It is not intended as a substitute for an official pre-flight weather briefing.

12:46:44 UTC

KPSP TAF
Palm Springs International Airport
Palm Springs, California, USA
KPSP 261122Z 2612/2712 VRB05KT P6SM SCT250 FM270000 34008KT P6SM BKN200

Mar-26@
12:00 UTC

Mar-26 @ 12:00 UTC

Mar-27@
00:00 UTC

Mar-27 @ 00:00 UTC

KPSP 261122Z 2612/2712 VRB05KT P6SM SCT250
Wind
  • Variable at 5 KTS
Cloud Levels
  • Scattered at 25,000' AGL

Mar-27@
00:00 UTC

Mar-27 @ 00:00 UTC

Mar-27@
12:00 UTC

Mar-27 @ 12:00 UTC

FM270000 34008KT P6SM BKN200

From

From Standard forecast or significant change

Wind
  • 340° at 8 KTS
Cloud Levels
  • Broken at 20,000' AGL